sensor_id;sensor_type;location;lat;lon;timestamp;temperature;humidity
21176;DHT22;10746;50.178;8.186;2023-02-28T00:00:48;-1.20;99.90
21176;DHT22;10746;50.178;8.186;2023-02-28T00:03:15;-1.30;99.90
21176;DHT22;10746;50.178;8.186;2023-02-28T00:05:41;-1.30;99.90
21176;DHT22;10746;50.178;8.186;2023-02-28T00:08:09;-1.30;99.90
21176;DHT22;10746;50.178;8.186;2023-02-28T00:10:36;-1.30;99.90
21176;DHT22;10746;50.178;8.186;2023-02-28T00:13:05;-1.30;99.90
21176;DHT22;10746;50.178;8.186;2023-02-28T00:15:33;-1.30;99.90
21176;DHT22;10746;50.178;8.186;2023-02-28T00:18:00;-1.30;99.90
21176;DHT22;10746;50.178;8.186;2023-02-28T00:20:27;-1.30;99.90
21176;DHT22;10746;50.178;8.186;2023-02-28T00:22:55;-1.30;99.90
21176;DHT22;10746;50.178;8.186;2023-02-28T00:25:24;-1.30;99.90
21176;DHT22;10746;50.178;8.186;2023-02-28T00:27:51;-1.40;99.90
21176;DHT22;10746;50.178;8.186;2023-02-28T00:30:20;-1.50;99.90
21176;DHT22;10746;50.178;8.186;2023-02-28T00:32:49;-1.50;99.90
21176;DHT22;10746;50.178;8.186;2023-02-28T00:35:17;-1.60;99.90
21176;DHT22;10746;50.178;8.186;2023-02-28T00:37:43;-1.60;99.90
21176;DHT22;10746;50.178;8.186;2023-02-28T00:40:11;-1.60;99.90
21176;DHT22;10746;50.178;8.186;2023-02-28T00:42:38;-1.70;99.90
21176;DHT22;10746;50.178;8.186;2023-02-28T00:45:06;-1.80;99.90
21176;DHT22;10746;50.178;8.186;2023-02-28T00:47:34;-1.70;99.90
21176;DHT22;10746;50.178;8.186;2023-02-28T00:50:02;-1.70;99.90
21176;DHT22;10746;50.178;8.186;2023-02-28T00:52:30;-1.70;99.90
21176;DHT22;10746;50.178;8.186;2023-02-28T00:54:57;-1.80;99.90
21176;DHT22;10746;50.178;8.186;2023-02-28T00:57:23;-1.80;99.90
21176;DHT22;10746;50.178;8.186;2023-02-28T00:59:50;-1.80;99.90
21176;DHT22;10746;50.178;8.186;2023-02-28T01:02:19;-1.80;99.90
21176;DHT22;10746;50.178;8.186;2023-02-28T01:04:46;-1.90;99.90
21176;DHT22;10746;50.178;8.186;2023-02-28T01:07:14;-1.90;99.90
21176;DHT22;10746;50.178;8.186;2023-02-28T01:09:41;-1.80;99.90
21176;DHT22;10746;50.178;8.186;2023-02-28T01:12:08;-1.80;99.90
21176;DHT22;10746;50.178;8.186;2023-02-28T01:14:35;-1.90;99.90
21176;DHT22;10746;50.178;8.186;2023-02-28T01:17:03;-1.90;99.90
21176;DHT22;10746;50.178;8.186;2023-02-28T01:19:30;-1.90;99.90
21176;DHT22;10746;50.178;8.186;2023-02-28T01:21:56;-1.90;99.90
21176;DHT22;10746;50.178;8.186;2023-02-28T01:24:24;-2.00;99.90
21176;DHT22;10746;50.178;8.186;2023-02-28T01:26:51;-1.90;99.90
21176;DHT22;10746;50.178;8.186;2023-02-28T01:29:18;-2.00;99.90
21176;DHT22;10746;50.178;8.186;2023-02-28T01:31:45;-2.00;99.90
21176;DHT22;10746;50.178;8.186;2023-02-28T01:34:11;-2.00;99.90
21176;DHT22;10746;50.178;8.186;2023-02-28T01:36:38;-2.00;99.90
21176;DHT22;10746;50.178;8.186;2023-02-28T01:39:05;-2.10;99.90
21176;DHT22;10746;50.178;8.186;2023-02-28T01:41:34;-2.10;99.90
21176;DHT22;10746;50.178;8.186;2023-02-28T01:44:04;-2.10;99.90
21176;DHT22;10746;50.178;8.186;2023-02-28T01:46:32;-2.10;99.90
21176;DHT22;10746;50.178;8.186;2023-02-28T01:49:03;-2.20;99.90
21176;DHT22;10746;50.178;8.186;2023-02-28T01:51:35;-2.20;99.90
21176;DHT22;10746;50.178;8.186;2023-02-28T01:54:08;-2.20;99.90
21176;DHT22;10746;50.178;8.186;2023-02-28T01:56:45;-2.30;99.90
21176;DHT22;10746;50.178;8.186;2023-02-28T01:59:17;-2.30;99.90
21176;DHT22;10746;50.178;8.186;2023-02-28T02:01:45;-2.30;99.90
21176;DHT22;10746;50.178;8.186;2023-02-28T02:04:12;-2.30;99.90
21176;DHT22;10746;50.178;8.186;2023-02-28T02:06:43;-2.40;99.90
21176;DHT22;10746;50.178;8.186;2023-02-28T02:09:10;-2.30;99.90
21176;DHT22;10746;50.178;8.186;2023-02-28T02:11:41;-2.40;99.90
21176;DHT22;10746;50.178;8.186;2023-02-28T02:14:18;-2.40;99.90
21176;DHT22;10746;50.178;8.186;2023-02-28T02:16:58;-2.40;99.90
21176;DHT22;10746;50.178;8.186;2023-02-28T02:23:20;-2.40;99.90
21176;DHT22;10746;50.178;8.186;2023-02-28T02:25:54;-2.40;99.90
21176;DHT22;10746;50.178;8.186;2023-02-28T02:28:45;-2.50;99.90
21176;DHT22;10746;50.178;8.186;2023-02-28T02:31:32;-2.50;99.90
21176;DHT22;10746;50.178;8.186;2023-02-28T02:34:28;-2.50;99.90
21176;DHT22;10746;50.178;8.186;2023-02-28T02:37:06;-2.50;99.90
21176;DHT22;10746;50.178;8.186;2023-02-28T02:39:39;-2.50;99.90
21176;DHT22;10746;50.178;8.186;2023-02-28T02:42:14;-2.60;99.90
21176;DHT22;10746;50.178;8.186;2023-02-28T02:44:45;-2.60;99.90
21176;DHT22;10746;50.178;8.186;2023-02-28T02:47:16;-2.70;99.90
21176;DHT22;10746;50.178;8.186;2023-02-28T02:49:48;-2.60;99.90
21176;DHT22;10746;50.178;8.186;2023-02-28T02:52:18;-2.60;99.90
21176;DHT22;10746;50.178;8.186;2023-02-28T02:54:48;-2.60;99.90
21176;DHT22;10746;50.178;8.186;2023-02-28T02:57:21;-2.60;99.90
21176;DHT22;10746;50.178;8.186;2023-02-28T02:59:50;-2.70;99.90
21176;DHT22;10746;50.178;8.186;2023-02-28T03:02:20;-2.70;99.90
21176;DHT22;10746;50.178;8.186;2023-02-28T03:04:52;-2.70;99.90
21176;DHT22;10746;50.178;8.186;2023-02-28T03:07:20;-2.70;99.90
21176;DHT22;10746;50.178;8.186;2023-02-28T03:09:51;-2.80;99.90
21176;DHT22;10746;50.178;8.186;2023-02-28T03:12:20;-2.70;99.90
21176;DHT22;10746;50.178;8.186;2023-02-28T03:14:56;-2.70;99.90
21176;DHT22;10746;50.178;8.186;2023-02-28T03:17:42;-2.70;99.90
21176;DHT22;10746;50.178;8.186;2023-02-28T03:20:19;-2.80;99.90
21176;DHT22;10746;50.178;8.186;2023-02-28T03:22:52;-2.80;99.90
21176;DHT22;10746;50.178;8.186;2023-02-28T03:25:29;-2.90;99.90
21176;DHT22;10746;50.178;8.186;2023-02-28T03:28:07;-2.90;99.90
21176;DHT22;10746;50.178;8.186;2023-02-28T03:30:41;-2.90;99.90
21176;DHT22;10746;50.178;8.186;2023-02-28T03:33:12;-2.90;99.90
21176;DHT22;10746;50.178;8.186;2023-02-28T03:35:45;-3.00;99.90
21176;DHT22;10746;50.178;8.186;2023-02-28T03:38:17;-3.00;99.90
21176;DHT22;10746;50.178;8.186;2023-02-28T03:40:48;-3.10;99.90
21176;DHT22;10746;50.178;8.186;2023-02-28T03:43:21;-3.10;99.90
21176;DHT22;10746;50.178;8.186;2023-02-28T03:45:50;-3.20;99.90
21176;DHT22;10746;50.178;8.186;2023-02-28T03:48:21;-3.20;99.90
21176;DHT22;10746;50.178;8.186;2023-02-28T03:50:53;-3.20;99.90
21176;DHT22;10746;50.178;8.186;2023-02-28T03:53:24;-3.20;99.90
21176;DHT22;10746;50.178;8.186;2023-02-28T03:55:54;-3.30;99.90
21176;DHT22;10746;50.178;8.186;2023-02-28T03:58:26;-3.30;99.90
21176;DHT22;10746;50.178;8.186;2023-02-28T04:00:59;-3.30;99.90
21176;DHT22;10746;50.178;8.186;2023-02-28T04:03:34;-3.30;99.90
21176;DHT22;10746;50.178;8.186;2023-02-28T04:06:03;-3.30;99.90
21176;DHT22;10746;50.178;8.186;2023-02-28T04:08:30;-3.30;99.90
21176;DHT22;10746;50.178;8.186;2023-02-28T04:11:00;-3.30;99.90
21176;DHT22;10746;50.178;8.186;2023-02-28T04:13:29;-3.20;99.90
21176;DHT22;10746;50.178;8.186;2023-02-28T04:15:56;-3.20;99.90
21176;DHT22;10746;50.178;8.186;2023-02-28T04:18:22;-3.20;99.90
21176;DHT22;10746;50.178;8.186;2023-02-28T04:20:49;-3.30;99.90
21176;DHT22;10746;50.178;8.186;2023-02-28T04:23:17;-3.30;99.90
21176;DHT22;10746;50.178;8.186;2023-02-28T04:25:44;-3.30;99.90
21176;DHT22;10746;50.178;8.186;2023-02-28T04:28:11;-3.40;99.90
21176;DHT22;10746;50.178;8.186;2023-02-28T04:30:37;-3.40;99.90
21176;DHT22;10746;50.178;8.186;2023-02-28T04:33:05;-3.40;99.90
21176;DHT22;10746;50.178;8.186;2023-02-28T04:35:32;-3.40;99.90
21176;DHT22;10746;50.178;8.186;2023-02-28T04:37:59;-3.40;99.90
21176;DHT22;10746;50.178;8.186;2023-02-28T04:40:27;-3.40;99.90
21176;DHT22;10746;50.178;8.186;2023-02-28T04:42:54;-3.50;99.90
21176;DHT22;10746;50.178;8.186;2023-02-28T04:45:21;-3.40;99.90
21176;DHT22;10746;50.178;8.186;2023-02-28T04:47:47;-3.50;99.90
21176;DHT22;10746;50.178;8.186;2023-02-28T04:50:14;-3.50;99.90
21176;DHT22;10746;50.178;8.186;2023-02-28T04:52:41;-3.40;99.90
21176;DHT22;10746;50.178;8.186;2023-02-28T04:55:08;-3.50;99.90
21176;DHT22;10746;50.178;8.186;2023-02-28T04:57:37;-3.50;99.90
21176;DHT22;10746;50.178;8.186;2023-02-28T05:00:04;-3.50;99.90
21176;DHT22;10746;50.178;8.186;2023-02-28T05:02:37;-3.50;99.90
21176;DHT22;10746;50.178;8.186;2023-02-28T05:05:05;-3.60;99.90
21176;DHT22;10746;50.178;8.186;2023-02-28T05:07:31;-3.60;99.90
21176;DHT22;10746;50.178;8.186;2023-02-28T05:09:58;-3.60;99.90
21176;DHT22;10746;50.178;8.186;2023-02-28T05:12:25;-3.60;99.90
21176;DHT22;10746;50.178;8.186;2023-02-28T05:14:53;-3.60;99.90
21176;DHT22;10746;50.178;8.186;2023-02-28T05:17:20;-3.70;99.90
21176;DHT22;10746;50.178;8.186;2023-02-28T05:19:46;-3.60;99.90
21176;DHT22;10746;50.178;8.186;2023-02-28T05:22:14;-3.60;99.90
21176;DHT22;10746;50.178;8.186;2023-02-28T05:24:42;-3.60;99.90
21176;DHT22;10746;50.178;8.186;2023-02-28T05:27:09;-3.60;99.90
21176;DHT22;10746;50.178;8.186;2023-02-28T05:29:36;-3.60;99.90
21176;DHT22;10746;50.178;8.186;2023-02-28T05:32:09;-3.70;99.90
21176;DHT22;10746;50.178;8.186;2023-02-28T05:34:36;-3.70;99.90
21176;DHT22;10746;50.178;8.186;2023-02-28T05:37:03;-3.70;99.90
21176;DHT22;10746;50.178;8.186;2023-02-28T05:39:30;-3.70;99.90
21176;DHT22;10746;50.178;8.186;2023-02-28T05:41:57;-3.70;99.90
21176;DHT22;10746;50.178;8.186;2023-02-28T05:44:23;-3.80;99.90
21176;DHT22;10746;50.178;8.186;2023-02-28T05:46:50;-3.80;99.90
21176;DHT22;10746;50.178;8.186;2023-02-28T05:49:18;-3.70;99.90
21176;DHT22;10746;50.178;8.186;2023-02-28T05:51:45;-3.60;99.90
21176;DHT22;10746;50.178;8.186;2023-02-28T05:54:12;-3.60;99.90
21176;DHT22;10746;50.178;8.186;2023-02-28T05:56:39;-3.50;99.90
21176;DHT22;10746;50.178;8.186;2023-02-28T05:59:06;-3.40;99.90
21176;DHT22;10746;50.178;8.186;2023-02-28T06:01:34;-3.40;99.90
21176;DHT22;10746;50.178;8.186;2023-02-28T06:04:03;-3.30;99.90
21176;DHT22;10746;50.178;8.186;2023-02-28T06:06:32;-3.30;99.90
21176;DHT22;10746;50.178;8.186;2023-02-28T06:09:01;-3.20;99.90
21176;DHT22;10746;50.178;8.186;2023-02-28T06:11:28;-3.20;99.90
21176;DHT22;10746;50.178;8.186;2023-02-28T06:13:55;-3.20;99.90
21176;DHT22;10746;50.178;8.186;2023-02-28T06:16:22;-3.20;99.90
21176;DHT22;10746;50.178;8.186;2023-02-28T06:18:49;-3.20;99.90
21176;DHT22;10746;50.178;8.186;2023-02-28T06:21:16;-3.10;99.90
21176;DHT22;10746;50.178;8.186;2023-02-28T06:23:44;-3.10;99.90
21176;DHT22;10746;50.178;8.186;2023-02-28T06:26:11;-3.10;99.90
21176;DHT22;10746;50.178;8.186;2023-02-28T06:28:38;-3.10;99.90
21176;DHT22;10746;50.178;8.186;2023-02-28T06:31:09;-3.00;99.90
21176;DHT22;10746;50.178;8.186;2023-02-28T06:33:36;-3.00;99.90
21176;DHT22;10746;50.178;8.186;2023-02-28T06:36:04;-3.00;99.90
21176;DHT22;10746;50.178;8.186;2023-02-28T06:38:31;-3.00;99.90
21176;DHT22;10746;50.178;8.186;2023-02-28T06:41:00;-2.90;99.90
21176;DHT22;10746;50.178;8.186;2023-02-28T06:43:28;-2.90;99.90
21176;DHT22;10746;50.178;8.186;2023-02-28T06:45:56;-2.90;99.90
21176;DHT22;10746;50.178;8.186;2023-02-28T06:48:23;-2.90;99.90
21176;DHT22;10746;50.178;8.186;2023-02-28T06:50:50;-3.00;99.90
21176;DHT22;10746;50.178;8.186;2023-02-28T06:53:17;-3.00;99.90
21176;DHT22;10746;50.178;8.186;2023-02-28T06:55:43;-3.00;99.90
21176;DHT22;10746;50.178;8.186;2023-02-28T06:58:12;-3.00;99.90
21176;DHT22;10746;50.178;8.186;2023-02-28T07:00:44;-2.90;99.90
21176;DHT22;10746;50.178;8.186;2023-02-28T07:03:12;-2.80;99.90
21176;DHT22;10746;50.178;8.186;2023-02-28T07:05:40;-2.70;99.90
21176;DHT22;10746;50.178;8.186;2023-02-28T07:08:07;-2.50;99.90
21176;DHT22;10746;50.178;8.186;2023-02-28T07:10:36;-2.30;99.90
21176;DHT22;10746;50.178;8.186;2023-02-28T07:13:03;-2.20;99.90
21176;DHT22;10746;50.178;8.186;2023-02-28T07:15:31;-2.10;99.90
21176;DHT22;10746;50.178;8.186;2023-02-28T07:17:58;-2.00;99.90
21176;DHT22;10746;50.178;8.186;2023-02-28T07:20:25;-1.90;99.90
21176;DHT22;10746;50.178;8.186;2023-02-28T07:22:52;-1.90;99.90
21176;DHT22;10746;50.178;8.186;2023-02-28T07:25:22;-1.70;99.90
21176;DHT22;10746;50.178;8.186;2023-02-28T07:27:49;-1.70;99.90
21176;DHT22;10746;50.178;8.186;2023-02-28T07:30:16;-1.60;99.90
21176;DHT22;10746;50.178;8.186;2023-02-28T07:32:45;-1.70;99.90
21176;DHT22;10746;50.178;8.186;2023-02-28T07:35:12;-2.10;99.90
21176;DHT22;10746;50.178;8.186;2023-02-28T07:37:40;-2.20;99.90
21176;DHT22;10746;50.178;8.186;2023-02-28T07:40:10;-2.20;99.90
21176;DHT22;10746;50.178;8.186;2023-02-28T07:42:38;-2.20;99.90
21176;DHT22;10746;50.178;8.186;2023-02-28T07:45:06;-2.10;99.90
21176;DHT22;10746;50.178;8.186;2023-02-28T07:47:33;-2.20;99.90
21176;DHT22;10746;50.178;8.186;2023-02-28T07:50:01;-1.80;99.90
21176;DHT22;10746;50.178;8.186;2023-02-28T07:52:28;-1.60;99.90
21176;DHT22;10746;50.178;8.186;2023-02-28T07:54:55;-1.50;99.90
21176;DHT22;10746;50.178;8.186;2023-02-28T07:57:22;-1.30;99.90
21176;DHT22;10746;50.178;8.186;2023-02-28T07:59:48;-1.10;99.90
21176;DHT22;10746;50.178;8.186;2023-02-28T08:02:17;-1.00;99.90
21176;DHT22;10746;50.178;8.186;2023-02-28T08:04:44;-0.90;99.90
21176;DHT22;10746;50.178;8.186;2023-02-28T08:07:13;-0.90;99.90
21176;DHT22;10746;50.178;8.186;2023-02-28T08:09:40;-0.80;99.90
21176;DHT22;10746;50.178;8.186;2023-02-28T08:12:08;-0.80;99.90
21176;DHT22;10746;50.178;8.186;2023-02-28T08:14:35;-0.60;99.90
21176;DHT22;10746;50.178;8.186;2023-02-28T08:17:02;-0.50;99.90
21176;DHT22;10746;50.178;8.186;2023-02-28T08:19:29;-0.40;99.90
21176;DHT22;10746;50.178;8.186;2023-02-28T08:21:56;-0.30;99.90
21176;DHT22;10746;50.178;8.186;2023-02-28T08:24:24;-0.20;99.90
21176;DHT22;10746;50.178;8.186;2023-02-28T08:26:51;0.00;99.90
21176;DHT22;10746;50.178;8.186;2023-02-28T08:29:18;0.30;99.90
21176;DHT22;10746;50.178;8.186;2023-02-28T08:31:44;0.30;99.90
21176;DHT22;10746;50.178;8.186;2023-02-28T08:34:13;0.30;99.90
21176;DHT22;10746;50.178;8.186;2023-02-28T08:36:40;0.40;99.90
21176;DHT22;10746;50.178;8.186;2023-02-28T08:39:08;0.70;99.90
21176;DHT22;10746;50.178;8.186;2023-02-28T08:41:36;0.80;99.90
21176;DHT22;10746;50.178;8.186;2023-02-28T08:44:03;0.90;99.90
21176;DHT22;10746;50.178;8.186;2023-02-28T08:46:30;0.70;99.90
21176;DHT22;10746;50.178;8.186;2023-02-28T08:48:57;0.70;99.90
21176;DHT22;10746;50.178;8.186;2023-02-28T08:51:25;1.10;99.90
21176;DHT22;10746;50.178;8.186;2023-02-28T08:53:54;1.10;99.90
21176;DHT22;10746;50.178;8.186;2023-02-28T08:56:21;1.00;99.90
21176;DHT22;10746;50.178;8.186;2023-02-28T08:58:50;1.20;99.90
21176;DHT22;10746;50.178;8.186;2023-02-28T09:01:18;1.40;99.90
21176;DHT22;10746;50.178;8.186;2023-02-28T09:03:46;1.30;99.90
21176;DHT22;10746;50.178;8.186;2023-02-28T09:06:14;1.30;99.90
21176;DHT22;10746;50.178;8.186;2023-02-28T09:08:41;1.70;99.90
21176;DHT22;10746;50.178;8.186;2023-02-28T09:11:09;1.60;99.90
21176;DHT22;10746;50.178;8.186;2023-02-28T09:13:36;1.40;99.90
21176;DHT22;10746;50.178;8.186;2023-02-28T09:16:06;1.50;99.90
21176;DHT22;10746;50.178;8.186;2023-02-28T09:18:35;1.30;99.90
21176;DHT22;10746;50.178;8.186;2023-02-28T09:21:03;1.40;99.90
21176;DHT22;10746;50.178;8.186;2023-02-28T09:23:30;1.30;99.90
21176;DHT22;10746;50.178;8.186;2023-02-28T09:25:57;1.10;99.90
21176;DHT22;10746;50.178;8.186;2023-02-28T09:28:24;0.90;99.90
21176;DHT22;10746;50.178;8.186;2023-02-28T09:30:53;1.30;99.90
21176;DHT22;10746;50.178;8.186;2023-02-28T09:33:21;1.50;99.90
21176;DHT22;10746;50.178;8.186;2023-02-28T09:35:49;1.90;99.90
21176;DHT22;10746;50.178;8.186;2023-02-28T09:38:16;1.60;99.90
21176;DHT22;10746;50.178;8.186;2023-02-28T09:40:48;1.90;99.90
21176;DHT22;10746;50.178;8.186;2023-02-28T09:43:17;1.60;99.90
21176;DHT22;10746;50.178;8.186;2023-02-28T09:45:49;1.80;99.90
21176;DHT22;10746;50.178;8.186;2023-02-28T09:48:21;2.10;99.90
21176;DHT22;10746;50.178;8.186;2023-02-28T09:50:51;2.20;99.90
21176;DHT22;10746;50.178;8.186;2023-02-28T09:53:22;2.10;99.90
21176;DHT22;10746;50.178;8.186;2023-02-28T09:55:56;1.60;99.90
21176;DHT22;10746;50.178;8.186;2023-02-28T09:58:32;2.00;99.90
21176;DHT22;10746;50.178;8.186;2023-02-28T10:01:06;2.20;99.90
21176;DHT22;10746;50.178;8.186;2023-02-28T10:03:39;1.70;99.90
21176;DHT22;10746;50.178;8.186;2023-02-28T10:06:12;1.80;99.90
21176;DHT22;10746;50.178;8.186;2023-02-28T10:08:45;2.00;99.90
21176;DHT22;10746;50.178;8.186;2023-02-28T10:11:16;2.40;99.90
21176;DHT22;10746;50.178;8.186;2023-02-28T10:13:50;2.00;99.90
21176;DHT22;10746;50.178;8.186;2023-02-28T10:16:24;1.80;99.90
21176;DHT22;10746;50.178;8.186;2023-02-28T10:18:57;1.80;99.90
21176;DHT22;10746;50.178;8.186;2023-02-28T10:21:30;1.40;99.90
21176;DHT22;10746;50.178;8.186;2023-02-28T10:24:03;1.00;99.90
21176;DHT22;10746;50.178;8.186;2023-02-28T10:26:35;0.50;99.90
21176;DHT22;10746;50.178;8.186;2023-02-28T10:29:03;0.60;99.90
21176;DHT22;10746;50.178;8.186;2023-02-28T10:31:30;0.70;99.90
21176;DHT22;10746;50.178;8.186;2023-02-28T10:33:58;0.60;99.90
21176;DHT22;10746;50.178;8.186;2023-02-28T10:36:24;0.90;99.90
21176;DHT22;10746;50.178;8.186;2023-02-28T10:38:51;0.70;99.90
21176;DHT22;10746;50.178;8.186;2023-02-28T10:41:28;0.90;99.90
21176;DHT22;10746;50.178;8.186;2023-02-28T10:44:14;0.90;99.90
21176;DHT22;10746;50.178;8.186;2023-02-28T10:46:42;1.60;99.90
21176;DHT22;10746;50.178;8.186;2023-02-28T10:49:17;1.60;99.90
21176;DHT22;10746;50.178;8.186;2023-02-28T10:51:45;1.60;99.90
21176;DHT22;10746;50.178;8.186;2023-02-28T10:54:19;1.50;99.90
21176;DHT22;10746;50.178;8.186;2023-02-28T10:57:06;1.10;99.90
21176;DHT22;10746;50.178;8.186;2023-02-28T10:59:35;1.00;99.90
21176;DHT22;10746;50.178;8.186;2023-02-28T11:02:07;0.70;99.90
21176;DHT22;10746;50.178;8.186;2023-02-28T11:04:54;0.80;99.90
21176;DHT22;10746;50.178;8.186;2023-02-28T11:07:23;1.60;99.90
21176;DHT22;10746;50.178;8.186;2023-02-28T11:09:52;2.00;99.90
21176;DHT22;10746;50.178;8.186;2023-02-28T11:12:23;1.70;99.90
21176;DHT22;10746;50.178;8.186;2023-02-28T11:14:55;2.50;99.90
21176;DHT22;10746;50.178;8.186;2023-02-28T11:17:23;3.00;99.90
21176;DHT22;10746;50.178;8.186;2023-02-28T11:19:54;2.50;99.90
21176;DHT22;10746;50.178;8.186;2023-02-28T11:22:23;2.40;99.90
21176;DHT22;10746;50.178;8.186;2023-02-28T11:24:55;2.50;99.90
21176;DHT22;10746;50.178;8.186;2023-02-28T11:27:45;2.50;99.90
21176;DHT22;10746;50.178;8.186;2023-02-28T11:30:36;2.60;99.90
21176;DHT22;10746;50.178;8.186;2023-02-28T11:33:20;2.10;99.90
21176;DHT22;10746;50.178;8.186;2023-02-28T11:35:50;1.70;99.90
21176;DHT22;10746;50.178;8.186;2023-02-28T11:38:17;1.70;99.90
21176;DHT22;10746;50.178;8.186;2023-02-28T11:40:52;2.30;99.90
21176;DHT22;10746;50.178;8.186;2023-02-28T11:43:33;1.90;99.90
21176;DHT22;10746;50.178;8.186;2023-02-28T11:46:14;1.80;99.90
21176;DHT22;10746;50.178;8.186;2023-02-28T11:48:51;1.70;99.90
21176;DHT22;10746;50.178;8.186;2023-02-28T11:51:27;2.50;99.90
21176;DHT22;10746;50.178;8.186;2023-02-28T11:54:21;3.60;99.90
21176;DHT22;10746;50.178;8.186;2023-02-28T11:56:53;3.90;99.90
21176;DHT22;10746;50.178;8.186;2023-02-28T11:59:35;3.70;99.90
21176;DHT22;10746;50.178;8.186;2023-02-28T12:02:25;4.40;99.90
21176;DHT22;10746;50.178;8.186;2023-02-28T12:05:08;4.70;99.90
21176;DHT22;10746;50.178;8.186;2023-02-28T12:07:47;3.90;99.90
21176;DHT22;10746;50.178;8.186;2023-02-28T12:10:21;3.60;99.90
21176;DHT22;10746;50.178;8.186;2023-02-28T12:12:57;2.90;99.90
21176;DHT22;10746;50.178;8.186;2023-02-28T12:15:42;2.90;99.90
21176;DHT22;10746;50.178;8.186;2023-02-28T12:21:06;2.90;99.90
21176;DHT22;10746;50.178;8.186;2023-02-28T12:24:12;3.60;99.90
21176;DHT22;10746;50.178;8.186;2023-02-28T12:26:46;4.30;99.90
21176;DHT22;10746;50.178;8.186;2023-02-28T12:29:17;4.20;99.90
21176;DHT22;10746;50.178;8.186;2023-02-28T12:31:49;3.90;99.90
21176;DHT22;10746;50.178;8.186;2023-02-28T12:34:21;4.80;99.90
21176;DHT22;10746;50.178;8.186;2023-02-28T12:36:51;5.40;99.90
21176;DHT22;10746;50.178;8.186;2023-02-28T12:39:25;4.40;99.90
21176;DHT22;10746;50.178;8.186;2023-02-28T12:41:54;4.60;99.90
21176;DHT22;10746;50.178;8.186;2023-02-28T12:44:28;4.60;99.90
21176;DHT22;10746;50.178;8.186;2023-02-28T12:46:59;5.10;99.90
21176;DHT22;10746;50.178;8.186;2023-02-28T12:49:30;4.70;99.90
21176;DHT22;10746;50.178;8.186;2023-02-28T12:51:59;4.10;99.90
21176;DHT22;10746;50.178;8.186;2023-02-28T12:54:31;3.50;99.90
21176;DHT22;10746;50.178;8.186;2023-02-28T12:57:05;3.90;99.90
21176;DHT22;10746;50.178;8.186;2023-02-28T12:59:37;3.40;99.90
21176;DHT22;10746;50.178;8.186;2023-02-28T13:02:33;3.60;99.90
21176;DHT22;10746;50.178;8.186;2023-02-28T13:08:23;3.60;99.90
21176;DHT22;10746;50.178;8.186;2023-02-28T13:10:57;4.00;99.90
21176;DHT22;10746;50.178;8.186;2023-02-28T13:13:26;4.90;99.90
21176;DHT22;10746;50.178;8.186;2023-02-28T13:16:04;5.10;99.90
21176;DHT22;10746;50.178;8.186;2023-02-28T13:18:34;5.90;99.90
21176;DHT22;10746;50.178;8.186;2023-02-28T13:21:03;6.10;99.90
21176;DHT22;10746;50.178;8.186;2023-02-28T13:29:31;5.20;99.90
21176;DHT22;10746;50.178;8.186;2023-02-28T13:35:44;4.20;99.90
21176;DHT22;10746;50.178;8.186;2023-02-28T13:38:39;4.10;99.90
21176;DHT22;10746;50.178;8.186;2023-02-28T13:41:42;4.30;99.90
21176;DHT22;10746;50.178;8.186;2023-02-28T13:44:10;4.80;99.90
21176;DHT22;10746;50.178;8.186;2023-02-28T13:47:19;5.10;99.90
21176;DHT22;10746;50.178;8.186;2023-02-28T13:49:48;5.00;99.90
21176;DHT22;10746;50.178;8.186;2023-02-28T13:52:19;4.70;99.90
21176;DHT22;10746;50.178;8.186;2023-02-28T13:55:06;4.80;99.90
21176;DHT22;10746;50.178;8.186;2023-02-28T13:57:54;5.20;99.90
21176;DHT22;10746;50.178;8.186;2023-02-28T14:00:34;5.50;99.90
21176;DHT22;10746;50.178;8.186;2023-02-28T14:03:31;5.20;99.90
21176;DHT22;10746;50.178;8.186;2023-02-28T14:06:18;5.30;99.90
21176;DHT22;10746;50.178;8.186;2023-02-28T14:08:55;4.90;99.90
21176;DHT22;10746;50.178;8.186;2023-02-28T14:11:31;4.00;99.90
21176;DHT22;10746;50.178;8.186;2023-02-28T14:14:00;3.20;99.90
21176;DHT22;10746;50.178;8.186;2023-02-28T14:16:35;2.50;99.90
21176;DHT22;10746;50.178;8.186;2023-02-28T14:19:09;2.50;99.90
21176;DHT22;10746;50.178;8.186;2023-02-28T14:21:40;2.60;99.90
21176;DHT22;10746;50.178;8.186;2023-02-28T14:24:25;2.70;99.90
21176;DHT22;10746;50.178;8.186;2023-02-28T14:33:25;3.70;99.90
21176;DHT22;10746;50.178;8.186;2023-02-28T14:36:03;4.40;99.90
21176;DHT22;10746;50.178;8.186;2023-02-28T14:38:35;4.00;99.90
21176;DHT22;10746;50.178;8.186;2023-02-28T14:41:06;4.50;99.90
21176;DHT22;10746;50.178;8.186;2023-02-28T14:43:48;4.50;99.90
21176;DHT22;10746;50.178;8.186;2023-02-28T14:46:15;4.10;99.90
21176;DHT22;10746;50.178;8.186;2023-02-28T14:48:46;3.50;99.90
21176;DHT22;10746;50.178;8.186;2023-02-28T14:51:18;2.90;99.90
21176;DHT22;10746;50.178;8.186;2023-02-28T14:53:50;2.80;99.90
21176;DHT22;10746;50.178;8.186;2023-02-28T14:56:21;2.60;99.90
21176;DHT22;10746;50.178;8.186;2023-02-28T14:58:53;2.50;99.90
21176;DHT22;10746;50.178;8.186;2023-02-28T15:01:21;2.40;99.90
21176;DHT22;10746;50.178;8.186;2023-02-28T15:03:57;2.40;99.90
21176;DHT22;10746;50.178;8.186;2023-02-28T15:06:24;2.40;99.90
21176;DHT22;10746;50.178;8.186;2023-02-28T15:09:06;2.20;99.90
21176;DHT22;10746;50.178;8.186;2023-02-28T15:11:34;2.20;99.90
21176;DHT22;10746;50.178;8.186;2023-02-28T15:14:01;2.20;99.90
21176;DHT22;10746;50.178;8.186;2023-02-28T15:16:32;2.10;99.90
21176;DHT22;10746;50.178;8.186;2023-02-28T15:19:04;2.20;99.90
21176;DHT22;10746;50.178;8.186;2023-02-28T15:21:34;2.30;99.90
21176;DHT22;10746;50.178;8.186;2023-02-28T15:24:04;2.30;99.90
21176;DHT22;10746;50.178;8.186;2023-02-28T15:26:33;2.20;99.90
21176;DHT22;10746;50.178;8.186;2023-02-28T15:29:03;2.30;99.90
21176;DHT22;10746;50.178;8.186;2023-02-28T15:31:33;2.20;99.90
21176;DHT22;10746;50.178;8.186;2023-02-28T15:34:05;2.00;99.90
21176;DHT22;10746;50.178;8.186;2023-02-28T15:36:34;2.00;99.90
21176;DHT22;10746;50.178;8.186;2023-02-28T15:39:16;2.10;99.90
21176;DHT22;10746;50.178;8.186;2023-02-28T15:41:43;2.00;99.90
21176;DHT22;10746;50.178;8.186;2023-02-28T15:44:15;2.00;99.90
21176;DHT22;10746;50.178;8.186;2023-02-28T15:46:44;2.00;99.90
21176;DHT22;10746;50.178;8.186;2023-02-28T15:49:19;2.10;99.90
21176;DHT22;10746;50.178;8.186;2023-02-28T15:51:46;2.00;99.90
21176;DHT22;10746;50.178;8.186;2023-02-28T15:54:20;2.00;99.90
21176;DHT22;10746;50.178;8.186;2023-02-28T15:56:51;2.00;99.90
21176;DHT22;10746;50.178;8.186;2023-02-28T15:59:21;1.90;99.90
21176;DHT22;10746;50.178;8.186;2023-02-28T16:02:04;1.90;99.90
21176;DHT22;10746;50.178;8.186;2023-02-28T16:04:58;1.90;99.90
21176;DHT22;10746;50.178;8.186;2023-02-28T16:07:26;1.80;99.90
21176;DHT22;10746;50.178;8.186;2023-02-28T16:09:53;1.80;99.90
21176;DHT22;10746;50.178;8.186;2023-02-28T16:12:20;1.80;99.90
21176;DHT22;10746;50.178;8.186;2023-02-28T16:14:52;1.80;99.90
21176;DHT22;10746;50.178;8.186;2023-02-28T16:17:21;1.70;99.90
21176;DHT22;10746;50.178;8.186;2023-02-28T16:19:49;1.70;99.90
21176;DHT22;10746;50.178;8.186;2023-02-28T16:22:16;1.70;99.90
21176;DHT22;10746;50.178;8.186;2023-02-28T16:24:43;1.60;99.90
21176;DHT22;10746;50.178;8.186;2023-02-28T16:27:16;1.50;99.90